sensor_id;sensor_type;location;lat;lon;timestamp;pressure;altitude;pressure_sealevel;temperature;humidity
29935;BME280;19905;53.370;-6.314;2023-04-10T00:00:53;100165.88;;;9.79;100.00
29935;BME280;19905;53.370;-6.314;2023-04-10T00:03:23;100161.94;;;9.74;100.00
29935;BME280;19905;53.370;-6.314;2023-04-10T00:05:53;100156.00;;;9.60;100.00
29935;BME280;19905;53.370;-6.314;2023-04-10T00:08:23;100151.94;;;9.56;100.00
29935;BME280;19905;53.370;-6.314;2023-04-10T00:10:51;100158.03;;;9.57;100.00
29935;BME280;19905;53.370;-6.314;2023-04-10T00:13:20;100156.50;;;9.54;100.00
29935;BME280;19905;53.370;-6.314;2023-04-10T00:15:49;100148.38;;;9.46;100.00
29935;BME280;19905;53.370;-6.314;2023-04-10T00:18:19;100146.69;;;9.45;100.00
29935;BME280;19905;53.370;-6.314;2023-04-10T00:20:48;100156.78;;;9.40;100.00
29935;BME280;19905;53.370;-6.314;2023-04-10T00:23:16;100156.88;;;9.38;100.00
29935;BME280;19905;53.370;-6.314;2023-04-10T00:25:46;100157.38;;;9.32;100.00
29935;BME280;19905;53.370;-6.314;2023-04-10T00:28:15;100161.22;;;9.28;100.00
29935;BME280;19905;53.370;-6.314;2023-04-10T00:30:44;100166.25;;;9.31;100.00
29935;BME280;19905;53.370;-6.314;2023-04-10T00:33:12;100164.22;;;9.24;100.00
29935;BME280;19905;53.370;-6.314;2023-04-10T00:35:43;100161.09;;;9.30;100.00
29935;BME280;19905;53.370;-6.314;2023-04-10T00:38:12;100162.88;;;9.29;100.00
29935;BME280;19905;53.370;-6.314;2023-04-10T00:40:41;100162.31;;;9.26;100.00
29935;BME280;19905;53.370;-6.314;2023-04-10T00:43:10;100169.25;;;9.15;100.00
29935;BME280;19905;53.370;-6.314;2023-04-10T00:45:38;100155.97;;;9.17;100.00
29935;BME280;19905;53.370;-6.314;2023-04-10T00:48:07;100158.16;;;9.12;100.00
29935;BME280;19905;53.370;-6.314;2023-04-10T00:50:36;100155.50;;;9.12;100.00
29935;BME280;19905;53.370;-6.314;2023-04-10T00:53:06;100155.88;;;9.07;100.00
29935;BME280;19905;53.370;-6.314;2023-04-10T00:55:34;100151.44;;;9.08;100.00
29935;BME280;19905;53.370;-6.314;2023-04-10T00:58:04;100139.19;;;9.07;100.00
29935;BME280;19905;53.370;-6.314;2023-04-10T01:00:33;100138.72;;;9.02;100.00
29935;BME280;19905;53.370;-6.314;2023-04-10T01:03:02;100133.72;;;8.99;100.00
29935;BME280;19905;53.370;-6.314;2023-04-10T01:05:38;100132.88;;;8.98;100.00
29935;BME280;19905;53.370;-6.314;2023-04-10T01:08:16;100125.81;;;8.99;100.00
29935;BME280;19905;53.370;-6.314;2023-04-10T01:10:56;100118.03;;;8.97;100.00
29935;BME280;19905;53.370;-6.314;2023-04-10T01:13:33;100119.81;;;8.97;100.00
29935;BME280;19905;53.370;-6.314;2023-04-10T01:16:10;100129.38;;;8.98;100.00
29935;BME280;19905;53.370;-6.314;2023-04-10T01:18:45;100118.63;;;9.01;100.00
29935;BME280;19905;53.370;-6.314;2023-04-10T01:21:16;100109.66;;;9.03;100.00
29935;BME280;19905;53.370;-6.314;2023-04-10T01:24:17;100110.84;;;8.99;100.00
29935;BME280;19905;53.370;-6.314;2023-04-10T01:27:07;100097.91;;;8.96;100.00
29935;BME280;19905;53.370;-6.314;2023-04-10T01:29:43;100100.19;;;9.01;100.00
29935;BME280;19905;53.370;-6.314;2023-04-10T01:32:16;100094.22;;;8.99;100.00
29935;BME280;19905;53.370;-6.314;2023-04-10T01:34:50;100091.06;;;9.05;100.00
29935;BME280;19905;53.370;-6.314;2023-04-10T01:37:22;100095.00;;;9.10;100.00
29935;BME280;19905;53.370;-6.314;2023-04-10T01:39:57;100100.03;;;9.13;100.00
29935;BME280;19905;53.370;-6.314;2023-04-10T01:42:28;100093.94;;;9.13;100.00
29935;BME280;19905;53.370;-6.314;2023-04-10T01:45:00;100093.94;;;9.13;100.00
29935;BME280;19905;53.370;-6.314;2023-04-10T01:47:31;100095.75;;;9.12;100.00
29935;BME280;19905;53.370;-6.314;2023-04-10T01:50:00;100085.78;;;9.16;100.00
29935;BME280;19905;53.370;-6.314;2023-04-10T01:52:30;100087.47;;;9.17;100.00
29935;BME280;19905;53.370;-6.314;2023-04-10T01:55:01;100091.63;;;9.20;100.00
29935;BME280;19905;53.370;-6.314;2023-04-10T01:57:30;100088.16;;;9.19;100.00
29935;BME280;19905;53.370;-6.314;2023-04-10T02:00:04;100089.97;;;9.19;100.00
29935;BME280;19905;53.370;-6.314;2023-04-10T02:02:33;100085.66;;;9.18;100.00
29935;BME280;19905;53.370;-6.314;2023-04-10T02:05:02;100079.53;;;9.28;100.00
29935;BME280;19905;53.370;-6.314;2023-04-10T02:07:35;100075.72;;;9.21;100.00
29935;BME280;19905;53.370;-6.314;2023-04-10T02:10:11;100083.03;;;9.18;100.00
29935;BME280;19905;53.370;-6.314;2023-04-10T02:12:45;100079.66;;;9.15;100.00
29935;BME280;19905;53.370;-6.314;2023-04-10T02:15:23;100078.59;;;9.18;100.00
29935;BME280;19905;53.370;-6.314;2023-04-10T02:17:55;100069.72;;;9.19;100.00
29935;BME280;19905;53.370;-6.314;2023-04-10T02:20:25;100075.72;;;9.21;100.00
29935;BME280;19905;53.370;-6.314;2023-04-10T02:22:54;100068.19;;;9.16;100.00
29935;BME280;19905;53.370;-6.314;2023-04-10T02:25:26;100069.25;;;9.14;100.00
29935;BME280;19905;53.370;-6.314;2023-04-10T02:27:54;100044.47;;;9.16;100.00
29935;BME280;19905;53.370;-6.314;2023-04-10T02:30:24;100031.88;;;9.20;100.00
29935;BME280;19905;53.370;-6.314;2023-04-10T02:32:53;100063.28;;;9.12;100.00
29935;BME280;19905;53.370;-6.314;2023-04-10T02:35:22;100060.06;;;9.08;100.00
29935;BME280;19905;53.370;-6.314;2023-04-10T02:37:51;100064.50;;;9.08;100.00
29935;BME280;19905;53.370;-6.314;2023-04-10T02:40:20;100055.50;;;9.10;100.00
29935;BME280;19905;53.370;-6.314;2023-04-10T02:42:49;100070.69;;;9.07;100.00
29935;BME280;19905;53.370;-6.314;2023-04-10T02:45:17;100066.75;;;9.12;100.00
29935;BME280;19905;53.370;-6.314;2023-04-10T02:47:48;100068.44;;;9.13;100.00
29935;BME280;19905;53.370;-6.314;2023-04-10T02:50:16;100057.88;;;9.13;100.00
29935;BME280;19905;53.370;-6.314;2023-04-10T02:52:45;100064.59;;;9.18;100.00
29935;BME280;19905;53.370;-6.314;2023-04-10T02:55:14;100045.69;;;9.12;100.00
29935;BME280;19905;53.370;-6.314;2023-04-10T02:57:43;100051.53;;;9.16;100.00
29935;BME280;19905;53.370;-6.314;2023-04-10T03:00:13;100043.75;;;9.14;100.00
29935;BME280;19905;53.370;-6.314;2023-04-10T03:02:41;100042.53;;;9.19;100.00
29935;BME280;19905;53.370;-6.314;2023-04-10T03:05:12;100054.38;;;9.24;100.00
29935;BME280;19905;53.370;-6.314;2023-04-10T03:07:41;100037.22;;;9.30;100.00
29935;BME280;19905;53.370;-6.314;2023-04-10T03:10:10;100035.69;;;9.27;100.00
29935;BME280;19905;53.370;-6.314;2023-04-10T03:12:39;100039.41;;;9.25;100.00
29935;BME280;19905;53.370;-6.314;2023-04-10T03:15:08;100040.13;;;9.27;100.00
29935;BME280;19905;53.370;-6.314;2023-04-10T03:17:37;100040.50;;;9.22;100.00
29935;BME280;19905;53.370;-6.314;2023-04-10T03:20:08;100033.06;;;9.16;100.00
29935;BME280;19905;53.370;-6.314;2023-04-10T03:22:38;100026.13;;;9.15;100.00
29935;BME280;19905;53.370;-6.314;2023-04-10T03:25:08;100028.91;;;9.13;100.00
29935;BME280;19905;53.370;-6.314;2023-04-10T03:27:37;100033.94;;;9.05;100.00
29935;BME280;19905;53.370;-6.314;2023-04-10T03:30:07;100025.44;;;9.02;100.00
29935;BME280;19905;53.370;-6.314;2023-04-10T03:32:36;100042.84;;;8.93;100.00
29935;BME280;19905;53.370;-6.314;2023-04-10T03:35:05;100034.56;;;8.98;100.00
29935;BME280;19905;53.370;-6.314;2023-04-10T03:37:34;100035.53;;;8.97;100.00
29935;BME280;19905;53.370;-6.314;2023-04-10T03:40:08;100031.59;;;8.91;100.00
29935;BME280;19905;53.370;-6.314;2023-04-10T03:42:37;100021.91;;;8.91;100.00
29935;BME280;19905;53.370;-6.314;2023-04-10T03:45:10;100022.03;;;8.90;100.00
29935;BME280;19905;53.370;-6.314;2023-04-10T03:47:39;100025.72;;;8.87;100.00
29935;BME280;19905;53.370;-6.314;2023-04-10T03:50:09;100020.00;;;8.82;100.00
29935;BME280;19905;53.370;-6.314;2023-04-10T03:52:38;100023.84;;;8.78;100.00
29935;BME280;19905;53.370;-6.314;2023-04-10T03:55:09;100025.50;;;8.79;100.00
29935;BME280;19905;53.370;-6.314;2023-04-10T03:57:38;100035.47;;;8.76;100.00
29935;BME280;19905;53.370;-6.314;2023-04-10T04:00:08;100017.63;;;8.68;100.00
29935;BME280;19905;53.370;-6.314;2023-04-10T04:02:37;100018.13;;;8.62;100.00
29935;BME280;19905;53.370;-6.314;2023-04-10T04:05:06;100017.31;;;8.61;100.00
29935;BME280;19905;53.370;-6.314;2023-04-10T04:07:35;100001.28;;;8.53;100.00
29935;BME280;19905;53.370;-6.314;2023-04-10T04:10:05;100006.06;;;8.48;100.00
29935;BME280;19905;53.370;-6.314;2023-04-10T04:12:35;100003.19;;;8.40;100.00
29935;BME280;19905;53.370;-6.314;2023-04-10T04:15:04;100001.03;;;8.34;100.00
29935;BME280;19905;53.370;-6.314;2023-04-10T04:17:33;99995.75;;;8.34;100.00
29935;BME280;19905;53.370;-6.314;2023-04-10T04:20:02;99996.94;;;8.30;100.00
29935;BME280;19905;53.370;-6.314;2023-04-10T04:22:30;99995.59;;;8.24;100.00
29935;BME280;19905;53.370;-6.314;2023-04-10T04:24:59;99997.19;;;8.27;100.00
29935;BME280;19905;53.370;-6.314;2023-04-10T04:27:28;99994.78;;;8.24;100.00
29935;BME280;19905;53.370;-6.314;2023-04-10T04:29:58;99998.38;;;8.23;100.00
29935;BME280;19905;53.370;-6.314;2023-04-10T04:32:26;100009.03;;;8.21;100.00
29935;BME280;19905;53.370;-6.314;2023-04-10T04:34:55;99993.81;;;8.13;100.00
29935;BME280;19905;53.370;-6.314;2023-04-10T04:37:24;99998.03;;;8.16;100.00
29935;BME280;19905;53.370;-6.314;2023-04-10T04:39:52;100006.16;;;8.13;100.00
29935;BME280;19905;53.370;-6.314;2023-04-10T04:42:21;99993.97;;;8.12;100.00
29935;BME280;19905;53.370;-6.314;2023-04-10T04:44:50;99989.75;;;8.09;100.00
29935;BME280;19905;53.370;-6.314;2023-04-10T04:47:21;99993.34;;;8.08;100.00
29935;BME280;19905;53.370;-6.314;2023-04-10T04:49:50;99988.22;;;8.07;100.00
29935;BME280;19905;53.370;-6.314;2023-04-10T04:52:19;99985.81;;;8.04;100.00
29935;BME280;19905;53.370;-6.314;2023-04-10T04:54:47;99980.56;;;8.04;100.00
29935;BME280;19905;53.370;-6.314;2023-04-10T04:57:16;99970.88;;;8.04;100.00
29935;BME280;19905;53.370;-6.314;2023-04-10T04:59:44;99965.47;;;8.06;100.00
29935;BME280;19905;53.370;-6.314;2023-04-10T05:02:14;99966.56;;;8.03;100.00
29935;BME280;19905;53.370;-6.314;2023-04-10T05:04:46;99980.56;;;8.04;100.00
29935;BME280;19905;53.370;-6.314;2023-04-10T05:07:14;99970.63;;;7.96;100.00
29935;BME280;19905;53.370;-6.314;2023-04-10T05:09:43;99974.09;;;7.97;100.00
29935;BME280;19905;53.370;-6.314;2023-04-10T05:12:12;99973.25;;;7.96;100.00
29935;BME280;19905;53.370;-6.314;2023-04-10T05:14:42;99963.09;;;7.92;100.00
29935;BME280;19905;53.370;-6.314;2023-04-10T05:17:10;99966.69;;;7.90;100.00
29935;BME280;19905;53.370;-6.314;2023-04-10T05:19:41;99968.34;;;7.92;100.00
29935;BME280;19905;53.370;-6.314;2023-04-10T05:22:11;99969.31;;;7.90;100.00
29935;BME280;19905;53.370;-6.314;2023-04-10T05:24:40;99965.00;;;7.89;100.00
29935;BME280;19905;53.370;-6.314;2023-04-10T05:27:08;99973.59;;;7.92;100.00
29935;BME280;19905;53.370;-6.314;2023-04-10T05:29:37;99978.88;;;7.92;100.00
29935;BME280;19905;53.370;-6.314;2023-04-10T05:32:06;99971.44;;;7.97;100.00
29935;BME280;19905;53.370;-6.314;2023-04-10T05:34:34;99969.91;;;8.05;100.00
29935;BME280;19905;53.370;-6.314;2023-04-10T05:37:03;99967.66;;;8.12;100.00
29935;BME280;19905;53.370;-6.314;2023-04-10T05:39:33;99960.00;;;8.09;100.00
29935;BME280;19905;53.370;-6.314;2023-04-10T05:42:02;99965.47;;;8.06;100.00
29935;BME280;19905;53.370;-6.314;2023-04-10T05:44:30;99955.56;;;8.09;100.00
29935;BME280;19905;53.370;-6.314;2023-04-10T05:46:59;99957.84;;;8.14;100.00
29935;BME280;19905;53.370;-6.314;2023-04-10T05:49:28;99953.31;;;8.16;100.00
29935;BME280;19905;53.370;-6.314;2023-04-10T05:51:56;99960.38;;;8.15;100.00
29935;BME280;19905;53.370;-6.314;2023-04-10T05:54:25;99954.97;;;8.17;100.00
29935;BME280;19905;53.370;-6.314;2023-04-10T05:56:55;99965.97;;;8.22;100.00
29935;BME280;19905;53.370;-6.314;2023-04-10T05:59:24;99966.06;;;8.32;100.00
29935;BME280;19905;53.370;-6.314;2023-04-10T06:01:52;99968.00;;;8.30;100.00
29935;BME280;19905;53.370;-6.314;2023-04-10T06:04:21;99960.13;;;8.30;100.00
29935;BME280;19905;53.370;-6.314;2023-04-10T06:06:50;99963.44;;;8.32;100.00
29935;BME280;19905;53.370;-6.314;2023-04-10T06:09:19;99970.16;;;8.36;100.00
29935;BME280;19905;53.370;-6.314;2023-04-10T06:11:48;99965.75;;;8.36;100.00
29935;BME280;19905;53.370;-6.314;2023-04-10T06:14:18;99967.19;;;8.40;100.00
29935;BME280;19905;53.370;-6.314;2023-04-10T06:16:47;99967.50;;;8.47;100.00
29935;BME280;19905;53.370;-6.314;2023-04-10T06:19:15;99966.31;;;8.51;100.00
29935;BME280;19905;53.370;-6.314;2023-04-10T06:21:44;99966.59;;;8.48;100.00
29935;BME280;19905;53.370;-6.314;2023-04-10T06:24:13;99969.09;;;8.50;100.00
29935;BME280;19905;53.370;-6.314;2023-04-10T06:26:42;99969.78;;;8.52;100.00
29935;BME280;19905;53.370;-6.314;2023-04-10T06:29:10;99963.81;;;8.50;100.00
29935;BME280;19905;53.370;-6.314;2023-04-10T06:31:41;99968.13;;;8.51;100.00
29935;BME280;19905;53.370;-6.314;2023-04-10T06:34:09;99967.75;;;8.55;100.00
29935;BME280;19905;53.370;-6.314;2023-04-10T06:36:41;99976.00;;;8.51;100.00
29935;BME280;19905;53.370;-6.314;2023-04-10T06:39:09;99982.00;;;8.53;100.00
29935;BME280;19905;53.370;-6.314;2023-04-10T06:41:38;99977.44;;;8.55;100.00
29935;BME280;19905;53.370;-6.314;2023-04-10T06:44:06;99983.19;;;8.60;100.00
29935;BME280;19905;53.370;-6.314;2023-04-10T06:46:35;99981.50;;;8.59;100.00
29935;BME280;19905;53.370;-6.314;2023-04-10T06:49:05;99983.06;;;8.61;100.00
29935;BME280;19905;53.370;-6.314;2023-04-10T06:51:34;99980.06;;;8.66;100.00
29935;BME280;19905;53.370;-6.314;2023-04-10T06:54:03;99977.22;;;8.58;100.00
29935;BME280;19905;53.370;-6.314;2023-04-10T06:56:31;99983.69;;;8.54;100.00
29935;BME280;19905;53.370;-6.314;2023-04-10T06:59:00;99979.84;;;8.47;100.00
29935;BME280;19905;53.370;-6.314;2023-04-10T07:01:29;99977.22;;;8.35;100.00
29935;BME280;19905;53.370;-6.314;2023-04-10T07:03:57;99976.97;;;8.27;100.00
29935;BME280;19905;53.370;-6.314;2023-04-10T07:06:28;99974.09;;;8.19;100.00
29935;BME280;19905;53.370;-6.314;2023-04-10T07:08:57;99980.06;;;8.10;100.00
29935;BME280;19905;53.370;-6.314;2023-04-10T07:11:25;99987.13;;;7.98;100.00
29935;BME280;19905;53.370;-6.314;2023-04-10T07:13:54;99985.56;;;7.84;100.00
29935;BME280;19905;53.370;-6.314;2023-04-10T07:16:24;99993.91;;;7.78;100.00
29935;BME280;19905;53.370;-6.314;2023-04-10T07:18:53;99984.91;;;7.70;100.00
29935;BME280;19905;53.370;-6.314;2023-04-10T07:21:23;99993.16;;;7.65;100.00
29935;BME280;19905;53.370;-6.314;2023-04-10T07:23:54;99999.84;;;7.58;100.00
29935;BME280;19905;53.370;-6.314;2023-04-10T07:26:23;100000.91;;;7.55;100.00
29935;BME280;19905;53.370;-6.314;2023-04-10T07:28:52;100000.31;;;7.52;100.00
29935;BME280;19905;53.370;-6.314;2023-04-10T07:31:21;100011.25;;;7.46;100.00
29935;BME280;19905;53.370;-6.314;2023-04-10T07:33:50;100005.84;;;7.36;100.00
29935;BME280;19905;53.370;-6.314;2023-04-10T07:36:19;100015.88;;;7.31;100.00
29935;BME280;19905;53.370;-6.314;2023-04-10T07:38:48;100007.84;;;7.21;100.00
29935;BME280;19905;53.370;-6.314;2023-04-10T07:41:18;100005.41;;;7.18;100.00
29935;BME280;19905;53.370;-6.314;2023-04-10T07:43:46;100009.13;;;7.16;100.00
29935;BME280;19905;53.370;-6.314;2023-04-10T07:46:16;100020.81;;;7.11;100.00
29935;BME280;19905;53.370;-6.314;2023-04-10T07:48:44;100014.22;;;7.06;100.00
29935;BME280;19905;53.370;-6.314;2023-04-10T07:51:15;100015.16;;;7.05;100.00
29935;BME280;19905;53.370;-6.314;2023-04-10T07:53:44;100012.63;;;7.03;100.00
29935;BME280;19905;53.370;-6.314;2023-04-10T07:56:17;100013.69;;;7.01;100.00
29935;BME280;19905;53.370;-6.314;2023-04-10T07:58:48;100015.38;;;7.02;100.00
29935;BME280;19905;53.370;-6.314;2023-04-10T08:01:16;100013.53;;;6.91;100.00
29935;BME280;19905;53.370;-6.314;2023-04-10T08:03:45;100013.94;;;6.98;100.00
29935;BME280;19905;53.370;-6.314;2023-04-10T08:06:14;100020.22;;;6.95;100.00
29935;BME280;19905;53.370;-6.314;2023-04-10T08:08:43;100024.66;;;6.95;100.00
29935;BME280;19905;53.370;-6.314;2023-04-10T08:11:24;100027.16;;;6.96;100.00
29935;BME280;19905;53.370;-6.314;2023-04-10T08:13:55;100023.69;;;6.96;100.00
29935;BME280;19905;53.370;-6.314;2023-04-10T08:16:25;100019.19;;;6.98;100.00
29935;BME280;19905;53.370;-6.314;2023-04-10T08:18:55;100016.31;;;7.01;100.00
29935;BME280;19905;53.370;-6.314;2023-04-10T08:21:25;100019.56;;;7.04;100.00
29935;BME280;19905;53.370;-6.314;2023-04-10T08:23:56;100011.81;;;7.03;100.00
29935;BME280;19905;53.370;-6.314;2023-04-10T08:26:27;100014.31;;;7.04;100.00
29935;BME280;19905;53.370;-6.314;2023-04-10T08:28:57;100017.69;;;7.06;100.00
29935;BME280;19905;53.370;-6.314;2023-04-10T08:31:27;100010.31;;;7.11;100.00
29935;BME280;19905;53.370;-6.314;2023-04-10T08:33:57;100018.06;;;7.13;100.00
29935;BME280;19905;53.370;-6.314;2023-04-10T08:36:26;100019.00;;;7.12;100.00
29935;BME280;19905;53.370;-6.314;2023-04-10T08:38:55;100019.13;;;7.10;100.00
29935;BME280;19905;53.370;-6.314;2023-04-10T08:41:24;100018.06;;;7.13;100.00
29935;BME280;19905;53.370;-6.314;2023-04-10T08:43:55;100015.84;;;7.20;100.00
29935;BME280;19905;53.370;-6.314;2023-04-10T08:46:24;100017.59;;;7.19;100.00
29935;BME280;19905;53.370;-6.314;2023-04-10T08:49:00;100016.19;;;7.15;100.00
29935;BME280;19905;53.370;-6.314;2023-04-10T08:51:33;100010.69;;;7.18;100.00
29935;BME280;19905;53.370;-6.314;2023-04-10T08:54:06;100009.72;;;7.19;100.00
29935;BME280;19905;53.370;-6.314;2023-04-10T08:56:36;100003.53;;;7.20;100.00
29935;BME280;19905;53.370;-6.314;2023-04-10T08:59:10;99997.13;;;7.24;100.00
29935;BME280;19905;53.370;-6.314;2023-04-10T09:01:39;99994.25;;;7.27;100.00
29935;BME280;19905;53.370;-6.314;2023-04-10T09:04:10;99994.03;;;7.42;100.00
29935;BME280;19905;53.370;-6.314;2023-04-10T09:06:39;99985.25;;;7.54;100.00
29935;BME280;19905;53.370;-6.314;2023-04-10T09:09:08;99981.72;;;7.77;100.00
29935;BME280;19905;53.370;-6.314;2023-04-10T09:11:56;99973.50;;;8.15;100.00
29935;BME280;19905;53.370;-6.314;2023-04-10T09:14:30;99965.97;;;8.45;100.00
29935;BME280;19905;53.370;-6.314;2023-04-10T09:17:14;99970.16;;;8.58;100.00
29935;BME280;19905;53.370;-6.314;2023-04-10T09:19:44;99952.06;;;8.65;100.00
29935;BME280;19905;53.370;-6.314;2023-04-10T09:22:14;99947.06;;;8.51;100.00
29935;BME280;19905;53.370;-6.314;2023-04-10T09:24:44;99932.00;;;8.53;100.00
29935;BME280;19905;53.370;-6.314;2023-04-10T09:27:27;99940.84;;;8.52;100.00
29935;BME280;19905;53.370;-6.314;2023-04-10T09:29:59;99930.53;;;8.60;100.00
29935;BME280;19905;53.370;-6.314;2023-04-10T09:32:40;99929.03;;;8.78;100.00
29935;BME280;19905;53.370;-6.314;2023-04-10T09:35:12;99929.16;;;8.77;100.00
29935;BME280;19905;53.370;-6.314;2023-04-10T09:37:43;99922.31;;;8.85;100.00
29935;BME280;19905;53.370;-6.314;2023-04-10T09:40:20;99921.50;;;9.06;100.00
29935;BME280;19905;53.370;-6.314;2023-04-10T09:42:53;99909.31;;;9.05;100.00
29935;BME280;19905;53.370;-6.314;2023-04-10T09:45:24;99901.56;;;8.92;100.00
29935;BME280;19905;53.370;-6.314;2023-04-10T09:48:03;99903.84;;;8.97;100.00
29935;BME280;19905;53.370;-6.314;2023-04-10T09:50:36;99906.50;;;9.18;100.00
29935;BME280;19905;53.370;-6.314;2023-04-10T09:53:06;99901.47;;;9.87;100.00
29935;BME280;19905;53.370;-6.314;2023-04-10T09:55:35;99888.53;;;10.14;100.00
29935;BME280;19905;53.370;-6.314;2023-04-10T09:58:04;99897.53;;;9.72;100.00
29935;BME280;19905;53.370;-6.314;2023-04-10T10:00:39;99885.44;;;9.69;100.00
29935;BME280;19905;53.370;-6.314;2023-04-10T10:03:09;99882.09;;;9.67;100.00
29935;BME280;19905;53.370;-6.314;2023-04-10T10:05:41;99889.81;;;9.59;100.00
29935;BME280;19905;53.370;-6.314;2023-04-10T10:08:12;99893.00;;;9.32;100.00
29935;BME280;19905;53.370;-6.314;2023-04-10T10:10:44;99898.53;;;9.08;100.00
29935;BME280;19905;53.370;-6.314;2023-04-10T10:13:15;99904.00;;;8.84;100.00
29935;BME280;19905;53.370;-6.314;2023-04-10T10:15:57;99907.59;;;8.83;100.00
29935;BME280;19905;53.370;-6.314;2023-04-10T10:18:34;99910.38;;;8.81;100.00
29935;BME280;19905;53.370;-6.314;2023-04-10T10:21:07;99908.31;;;8.85;100.00
29935;BME280;19905;53.370;-6.314;2023-04-10T10:23:37;99913.66;;;8.95;100.00
29935;BME280;19905;53.370;-6.314;2023-04-10T10:26:07;99909.81;;;8.99;100.00
29935;BME280;19905;53.370;-6.314;2023-04-10T10:28:39;99894.84;;;9.20;100.00
29935;BME280;19905;53.370;-6.314;2023-04-10T10:31:10;99882.78;;;10.00;100.00
29935;BME280;19905;53.370;-6.314;2023-04-10T10:33:40;99878.03;;;9.93;100.00
29935;BME280;19905;53.370;-6.314;2023-04-10T10:36:08;99875.31;;;10.64;100.00
29935;BME280;19905;53.370;-6.314;2023-04-10T10:38:52;99862.25;;;10.92;100.00
29935;BME280;19905;53.370;-6.314;2023-04-10T10:41:25;99865.03;;;10.21;100.00
29935;BME280;19905;53.370;-6.314;2023-04-10T10:44:05;99866.97;;;10.09;100.00
29935;BME280;19905;53.370;-6.314;2023-04-10T10:46:42;99855.13;;;11.02;100.00
29935;BME280;19905;53.370;-6.314;2023-04-10T10:49:12;99850.41;;;10.48;100.00
29935;BME280;19905;53.370;-6.314;2023-04-10T10:51:45;99853.16;;;9.86;100.00
29935;BME280;19905;53.370;-6.314;2023-04-10T10:54:32;99848.41;;;9.80;100.00
29935;BME280;19905;53.370;-6.314;2023-04-10T11:00:12;99870.19;;;9.73;100.00
29935;BME280;19905;53.370;-6.314;2023-04-10T11:02:42;99853.75;;;9.59;100.00
29935;BME280;19905;53.370;-6.314;2023-04-10T11:05:48;99838.59;;;10.81;100.00
29935;BME280;19905;53.370;-6.314;2023-04-10T11:08:41;99823.34;;;11.31;100.00
29935;BME280;19905;53.370;-6.314;2023-04-10T11:11:19;99834.03;;;10.73;100.00
29935;BME280;19905;53.370;-6.314;2023-04-10T11:14:13;99809.69;;;10.40;100.00
29935;BME280;19905;53.370;-6.314;2023-04-10T11:16:47;99822.31;;;10.27;100.00
29935;BME280;19905;53.370;-6.314;2023-04-10T11:19:18;99826.94;;;10.45;100.00
29935;BME280;19905;53.370;-6.314;2023-04-10T11:22:15;99803.56;;;11.82;100.00
29935;BME280;19905;53.370;-6.314;2023-04-10T11:24:58;99791.25;;;12.09;100.00
29935;BME280;19905;53.370;-6.314;2023-04-10T11:27:42;99776.91;;;12.65;100.00
29935;BME280;19905;53.370;-6.314;2023-04-10T11:30:34;99783.38;;;11.44;100.00
29935;BME280;19905;53.370;-6.314;2023-04-10T11:33:04;99796.91;;;10.65;100.00
29935;BME280;19905;53.370;-6.314;2023-04-10T11:35:35;99839.25;;;9.84;100.00
29935;BME280;19905;53.370;-6.314;2023-04-10T11:38:21;99843.75;;;9.32;100.00
29935;BME280;19905;53.370;-6.314;2023-04-10T11:41:00;99862.22;;;8.90;100.00
29935;BME280;19905;53.370;-6.314;2023-04-10T11:43:30;99851.00;;;8.77;100.00
29935;BME280;19905;53.370;-6.314;2023-04-10T11:46:04;99859.88;;;8.76;100.00
29935;BME280;19905;53.370;-6.314;2023-04-10T11:48:35;99870.53;;;8.75;100.00
29935;BME280;19905;53.370;-6.314;2023-04-10T11:51:10;99862.06;;;8.71;100.00
29935;BME280;19905;53.370;-6.314;2023-04-10T11:53:39;99882.41;;;8.69;100.00
29935;BME280;19905;53.370;-6.314;2023-04-10T11:56:18;99885.41;;;8.64;100.00
29935;BME280;19905;53.370;-6.314;2023-04-10T11:58:49;99892.81;;;8.71;100.00
29935;BME280;19905;53.370;-6.314;2023-04-10T12:01:21;99877.59;;;8.74;100.00
29935;BME280;19905;53.370;-6.314;2023-04-10T12:03:50;99904.66;;;8.65;100.00
29935;BME280;19905;53.370;-6.314;2023-04-10T12:06:21;99902.00;;;8.76;100.00
29935;BME280;19905;53.370;-6.314;2023-04-10T12:08:50;99900.16;;;8.56;100.00
29935;BME280;19905;53.370;-6.314;2023-04-10T12:11:20;99910.56;;;8.57;100.00
29935;BME280;19905;53.370;-6.314;2023-04-10T12:13:51;99911.88;;;8.52;100.00
29935;BME280;19905;53.370;-6.314;2023-04-10T12:16:21;99906.16;;;8.47;100.00
29935;BME280;19905;53.370;-6.314;2023-04-10T12:18:50;99907.84;;;8.48;100.00
29935;BME280;19905;53.370;-6.314;2023-04-10T12:21:21;99913.81;;;8.50;100.00
29935;BME280;19905;53.370;-6.314;2023-04-10T12:23:50;99918.09;;;8.62;100.00
29935;BME280;19905;53.370;-6.314;2023-04-10T12:26:20;99910.91;;;8.64;100.00
29935;BME280;19905;53.370;-6.314;2023-04-10T12:28:50;99902.16;;;8.63;100.00
29935;BME280;19905;53.370;-6.314;2023-04-10T12:31:27;99906.34;;;8.98;100.00
29935;BME280;19905;53.370;-6.314;2023-04-10T12:33:57;99897.81;;;9.06;100.00
29935;BME280;19905;53.370;-6.314;2023-04-10T12:36:30;99902.47;;;9.02;100.00
29935;BME280;19905;53.370;-6.314;2023-04-10T12:39:02;99893.97;;;9.31;100.00
29935;BME280;19905;53.370;-6.314;2023-04-10T12:41:33;99889.25;;;9.55;100.00
29935;BME280;19905;53.370;-6.314;2023-04-10T12:44:07;99886.25;;;9.70;100.00
29935;BME280;19905;53.370;-6.314;2023-04-10T12:46:37;99882.28;;;9.85;100.00
29935;BME280;19905;53.370;-6.314;2023-04-10T12:49:11;99887.88;;;9.91;100.00
29935;BME280;19905;53.370;-6.314;2023-04-10T12:51:44;99867.47;;;9.93;100.00
29935;BME280;19905;53.370;-6.314;2023-04-10T12:54:29;99868.50;;;10.12;100.00
29935;BME280;19905;53.370;-6.314;2023-04-10T12:56:59;99873.50;;;10.65;100.00
29935;BME280;19905;53.370;-6.314;2023-04-10T12:59:28;99877.13;;;10.83;100.00
29935;BME280;19905;53.370;-6.314;2023-04-10T13:01:57;99864.47;;;10.87;100.00
29935;BME280;19905;53.370;-6.314;2023-04-10T13:04:29;99863.63;;;10.86;100.00
29935;BME280;19905;53.370;-6.314;2023-04-10T13:06:59;99859.31;;;10.85;100.00
29935;BME280;19905;53.370;-6.314;2023-04-10T13:09:28;99850.84;;;10.91;100.00